Faktúry za rok 2015

január február marec apríl máj jún júl august september október november december

Por. č. Dátum doručenia Názov a adresa dodávateľa IČO Popis plnenia Suma bez DPH Suma s DPH Č. OBJ
1258 5.10.15 Národná energetiská spol.a.s. 43769233 rozbor paliva 60,00 72,00 10062
1259 5.10.15 Michal Machay - DESIGN PLUS 41190904 tlač výročnej správy 1125,00 1350,00 9919
1260 5.10.15 Karel Holoubek - Trade Group 25060996 palivo 103798,30 103798,30 10085
1261 5.10.15 Karel Holoubek - Trade Group 25060996 palivo 99353,96 99353,96 10085
1262 5.10.15 Beličková, s.r.o. 45902836 farby 298,26 357,91 10031
1263 5.10.15 STEFE Zvolen s.r.o. 31612300 služba 12500,00 15000,00  
1264 5.10.15 WUSAM a.s. 31630545 matica 130,00 156,00 10039
1265 5.10.15 NCH SLOVAKIA s.r.o. 34096043 chémia 112,92 135,50 10070
1266 5.10.15 NCH SLOVAKIA s.r.o. 34096043 chémia 4143,20 4971,84 10080
1267 5.10.15 IS-Mirage, s.r.o. 44966946 strážna služba 5544,00 6652,80 9462
1268 5.10.15 ABB, s.r.o. 31389325 servis 680,00 816,00 9478
1269 5.10.15 CALMIT, spol. s.r.o. 36172162 spezikalk 600,00 720,00 10027
1270 5.10.15 Tempest, a.s. 31326650 tachografická karta 52,50 63,00  
1271 5.10.15 Marius Pedersen 34115901 smeti 48,54 58,25 9530
1272 5.10.15 ŽS Cargo Slovakia a.s. 35914921 vlečka 1964,30 2357,16 10085
1273 5.10.15 SOMI Systems, a.s. 36041432 údržba 209,00 250,80 9489
1274 5.10.15 D.A.V. spol. s r.o. 31574661 akumulátor 40,00 48,00 10007
1275 5.10.15 Združeniepriem. Odberateľov ener 37935763 kurz 798,00 798,00  
1276 5.10.15 D.K.C., s.r.o. 31571727 nafta 2327,38 2792,86 10028
1277 5.10.15 Ulianko a Partners, s.r.o. 36856517 právne služby 1500,00 1800,00 9449
1278 5.10.15 Ekoposs - Haraj 11875321 poradeňstvo - dane 398,34 478,01  
1279 5.10.15 Sloving, spol. s.r.o. 17321069 strojné práce 12502,46 15002,95 10000
1280 5.10.15 METRO Cash & Carry 45952671 čistiace prostriedky 42,83 51,40  
1281 5.10.15 Bučina Zvolen, a.s. 36029815 teplo 44041,52 52849,78  
1282 6.10.15 GALAXIA s.r.o. 36022284 strava 917,50 1101,00  
1283 6.10.15 TECHNIK-stavba a bývanie s.r.o. 47531711 sanita 128,30 154,30 10098
1284 6.10.15 TECHNIK-stavba a bývanie s.r.o. 47531711 sanita - príslušenstvo 191,69 230,03 10054
1285 6.10.15 OKTE, a.s. 45687862 admin. poplatok 0,82 0,98  
1286 7.10.15 Orange Slovensko 35697270 mobilné hovory a int. 617,99 736,05  
1287 7.10.15 Spin 35866888 služby 66,39 79,67 9468
1288 7.10.15 Bučina DDD, spol. s.r.o. 36059323 prevádzka vlečky 2977,08 3572,50 10085
1289 7.10.15 Drucker, s.r.o. 44925417 tlačiaren- zber. Nádoba 295,00 354,00 10090
1290 7.10.15 A-Z lokomat s.r.o. 31617034 drevná štiepka 146159,87 175391,84 9500
1291 7.10.15 A-Z lokomat s.r.o. 31617034 drevná štiepka 6187,37 7424,84 9500
1292 7.10.15 excell, a.s. 35804629 služby 840,00 1008,00 9493
1293 8.10.15 Slovwood Ružomberok , a.s 36406317 biomasa 30390,42 36468,50 9503
1294 8.10.15 Stredosl.vod.prev.spol.,a.s. 36644030 voda 453,96 544,75 9450
1295 8.10.15 Allianz- Slovenská poisťovňa, a.s. 151700 poistné za vozidlá   1558,63  
1296 8.10.15 PharmaSynergix, s.r.o. 36709221 tesniaca hmota 132,00 158,40 10069
1297 8.10.15 ARTON, s.r.o. 31595154 kancelárske potreby 562,50 675,00 10060
1298 8.10.15 SSE, a.s. 36403008 elektrina 3113,12 3735,74  
1299 8.10.15 Čas Energo Plus, s.r.o. 36034207 biomasa 73089,88 87707,86 9501
1300 8.10.15 Slovenský vodohosp. Pod, š.p.. 2204703 povrchová voda 9677,59 11613,11 9460
1301 8.10.15 Eurosteel, spol. s.r.o 36057819 materiál 56,37 67,64 10074
1302 8.10.15 OMV, s.r.o. 604381 tankovanie 440,64 526,37  
1303 8.10.15 REMOS Zvolen, s.r.o 36032506 práce 1000,00 1200,00 10073
1304 8.10.15 Ján Mičiak 44637934 overenie meračov 82,40 98,88 9451
1305 9.10.15 Ekol. Spol. s.r.o. 31646808 technická pomoc 1064,50 1277,40 9863
1306 9.10.15 ŽS Cargo Slovakia a.s. 35914921 vlečka 3668,00 4401,60 10085
1307 9.10.15 Slovak Telekom, a.s. 35763469 tel. hovory 301,73 362,08  
1308 9.10.15 Marius Pedersen 34115901 smeti 159,10 189,54 9530
1309 9.10.15 Linde Gas k.s 31373861 najomne 266,40 319,68 9457
1310 9.10.15 ProCare, a.s. 35890568 PZS 753,30 813,56 9554
1311 9.10.15 ZVARMAT s.r.o. 36622567 elektrody 32,87 39,44 10075
1312 9.10.15 AutoKODUS s.r.o. 36530751 akumulator 236,66 283,99 10068
1313 9.10.15 AutoKODUS s.r.o. 36530751 olej 57,00 68,40 10011
1314 9.10.15 OKTE, a.s. 45687862 prevádzkovanie systému 26181,34 31417,61 9499
1315 9.10.15 OKTE, a.s. 45687862 systémové služby 9239,06 11086,87 9499
1316 9.10.15 Weron s.r.o. 36026751 upratovacie služby 1453,16 1743,79 9463
1317 12.10.15 Unicarback, s.r.o. 46643206 kosenie  1284,57 1541,48 10005
1318 12.10.15 BiLFINGER, s.r.o. 47784709 oprava regul. Ventilov 37280,66 37280,66 9986
1319 12.10.15 GX Solutions, a.s. 45232270 servis 58,10 69,72 9482
1320 12.10.15 Ing. Sihelský Michal 46196056 periodické skúšky 1248,00 1248,00  
1321 12.10.15 Slovenský vodohosp. Pod, š.p.. 2204703 voda 203,91 244,69 9470
1322 12.10.15 SSE - Distribúcia, a.s. 36442151 VN 13082,31 15698,77  
1323 12.10.15 SSE - Distribúcia, a.s. 36442151 služba VN 423,09 507,71  
1324 12.10.15 SSE - Distribúcia, a.s. 36442151 služba VVN 12522,17 15026,60  
1325 12.10.15 Slovak Telekom, a.s. 35763469 DBS tel. hovory -59,70 -71,64  
1326 12.10.15 Slovak Telekom, a.s. 35763469 internet 249,03 298,84  
1327 12.10.15 Weby group 36046884 služby 38,84 46,61 9496
1328 12.10.15 IMET-AKE, s.r.o. 31341870 ložisko 6,78 8,14 10083
1329 12.10.15 REMA TIP TOP INCO-SK, s.r.o. 31621643 cement 534,72 641,66 10096
1330 13.10.15 Karel Holoubek - Trade Group 25060996 palivo 210673,25 210673,25 10085
1331 13.10.15 NAVILEN, s.r.o. 45525633 ND  400,00 480,00 10037
1332 13.10.15 SAP Slovensko, s.r.o. 35737328 údržba 3170,41 3804,49 9491
1333 13.10.15 Ing. Peter Hančinský - ZVARGRAN 34255028 periodická skúška 400,00 480,00  
1334 13.10.15 OKTE, a.s. 45687862 odchýlka 09/15 5925,11 7110,13  
1335 13.10.15 OKTE, a.s. 45687862 za zúčtovanie odchýlky 26,55 31,86  
1336 14.10.15 Fortischem 36052248 hydroxid sodný 7338,00 8805,60 10089
1337 14.10.15 Schneider Electric Slovakia, s.r.o. 35723394 oprava 795,00 954,00 10055
1338 14.10.15 BVH. Spol, s.r.o. 35674148 peridická prehliadka 556,40 667,68 10063
1339 14.10.15 IVBP s.r.o. 35812427 seminár BOZP 270,00 324,00  
1340 14.10.15 Aspek APE na Slovensku 30806542 konferencia 160,00 192,00  
1341 14.10.15 D.K.C., s.r.o. 31571727 nafta 862,00 1034,40 10108
1342 15.10.15 Drucker, s.r.o. 44925417 servis tlačiarne 55,00 66,00 10081
1343 15.10.15 PPA inžiniering, s.r.o. 31376045 údržba 1785,00 2142,00 9494
1344 15.10.15 ČERPEX s.r.o. 46191801 spojka čerpadla 104,00 124,80 10038
1345 15.10.15 Duslo, a.s. 35826487 furmanite 753,00 903,60 10088
1346 15.10.15 Sezako Trnava, s.r.o. 36263800 monitoring drenážnych rúr 1065,68 1278,82 10013
1347 15.10.15 Verlag Dashofer 35730129 DPH - právne predpisy 173,30 173,30  
1348 15.10.15 TECHNIK-stavba a bývanie s.r.o. 47531711 drezové batérie 64,17 77,00 10111
1349 15.10.15 ZVARMAT s.r.o. 36622567 zvarovací drôt 74,10 88,92 10097
1350 15.10.15 SSE - Distribúcia, a.s. 36442151 VVN 11776,80 14132,16  
1351 16.10.15 TECHNIK-stavba a bývanie s.r.o. 47531711 žľaby 107,98 129,58 10117
1352 16.10.15 JF, spol. s.r.o 36620009 opakované školenie 30,00 36,00  
1353 16.10.15 Železnice SR 31364501 elektrina 8,35 10,02  
1354 16.10.15 Eurofins BEL/Novamann 31329209 analýzy odp. Vody 65,50 78,60 9461
1355 16.10.15 Elevátor servis, s.r.o 36045641 servis 94,00 112,80  
1356 16.10.15 ČEZ Slovensko, a.s. 36797332 plyn 57963,63 69556,35  
1357 16.10.15 Energodata, spol. s.r.o. 30223806 technická pomoc 4423,78 5308,54 9492
1358 16.10.15 Karel Holoubek - Trade Group 25060996 palivo 302575,88 302575,88 10085
1359 16.10.15 ŽS Cargo Slovakia a.s. 35914921 vlečka 3668,00 4401,60 10085
1360 16.10.15 SEPS, a.s. 35829141 zmluvná pokuta 17966,21 17966,21  
1361 16.10.15 Poradca podnilkateľa s.r.o. 31592503 PaM 62,85 62,85  
1362 16.10.15 Chiva SK , spol s.r.o. 46472762 koleno varné 1203,00 1443,60 10114
1363 16.10.15 Chéque Déjeuner 31396674 stravné lístky 6170,50 6243,81  
1364 19.10.15 Karel Holoubek - Trade Group 25060996 palivo 214214,32 214214,32 10085
1365 19.10.15 NCH SLOVAKIA s.r.o. 34096043 chémia 198,00 237,60 10113
1366 19.10.15 NCH SLOVAKIA s.r.o. 34096043 chémia 787,01 944,41 10099
1367 19.10.15 SSE, a.s. 36403008 telekom. Okruhy 570,96 685,15  
1368 19.10.15 Energodata, spol. s.r.o. 30223806 oprava 7384,00 8860,80 10032
1369 19.10.15 Energodata, spol. s.r.o. 30223806 nájomné 15941,95 19130,34 9565
1370 19.10.15 REVYMONT, spol. s r.o. 30996503 kontrola rýchlouz. Tab. 3700,00 4440,00 9646
1371 20.10.15 Elmark Plus, s.r.o. 46331662 oprava meniča 870,00 1044,00 10135
1372 20.10.15 Pollux-Plus, s.r.o. 36011924 oprava rampy 57,60 69,12 10091
1373 20.10.15 OSKO.a,s. 36044717 kable 297,92 357,50 10120
1374 21.10.15 PKS Elektro 43890164 odborné prehliadky 9414,00 11296,80 9872
1375 21.10.15 NCH SLOVAKIA s.r.o. 34096043 chémia 3256,08 3907,30 10104
1376 21.10.15 D.K.C., s.r.o. 31571727 nafta 874,00 1048,80 10108
1377 21.10.15 Fittich s.r.o. 46849891 kontrola EPS 260,00 312,00 9447
1378 21.10.15 BiLFINGER, s.r.o. 47784709 oprava 8631,50 8631,50 10061
1379 21.10.15 A-Z lokomat s.r.o. 31617034 štiepka 7977,22 9572,66 9500
1380 21.10.15 A-Z lokomat s.r.o. 31617034 štiepka 173976,74 208772,09 9500
1381 21.10.15 ROEXIM s.r.o. 46472878 materiál 65,50 78,60 10077
1382 21.10.15 OKAY Slovakia - elektrospotrebiče 35825979 záloha na fotoaparáty 119,98 119,98 10137
1383 22.10.15 elektrik group, s.r.o. 36745090 revízie elektroinštalácií 1915,00 2298,00 10078
1384 22.10.15 BVH. Spol, s.r.o. 35674148 ochranné prostr. 2376,04 2851,25 10071
1385 22.10.15 BVH. Spol, s.r.o. 35674148 ochranné prostr. 550,74 660,89 10072
1386 22.10.15 OMV, s.r.o. 604381 tankovanie 497,22 594,66  
1387 22.10.15 Karel Holoubek - Trade Group 25060996 DBS palivo -289,78 -289,78 10085
1388 23.10.15 ŽS Cargo Slovakia a.s. 35914921 vlečka 5667,40 6800,88  
1389 23.10.15 BVH. Spol, s.r.o. 35674148 ochranné prostr. 109,79 131,75 10071
1390 26.10.15 Vertical Industrial, a.s. 35830085 revízia 1660,00 1992,00 9952
1391 26.10.15 Čas Energo Plus, s.r.o. 36034207 DRŠ 105095,49 126114,59  
1392 26.10.15 Drucker, s.r.o. 44925417 Valec Minolta 124,20 149,04  
1393 26.10.15 Sloving, spol. s.r.o. 17321069 odborná prehliadka 962,31 1154,77 10059
1394 26.10.15 Vertical Industrial, a.s. 35830085 revízia komína 1132,00 1358,40 9951
1395 26.10.15 AutoKODUS s.r.o. 36530751 nemrznúca zmes 160,20 192,24 10125
1396 26.10.15 AutoKODUS s.r.o. 36530751 olej 57,00 68,40 10141
1397 26.10.15 Eduard Kubinec - Praktik 33299153 ventily 14,84 17,81 10124
1398 26.10.15 OSKO.a,s. 36044717 elektromateriál 809,62 971,54 10042
1399 27.10.15 Linde Gas k.s 31373861 kyslík 71,35 85,62 9457
1400 27.10.15 EPO, s.r.o. 652598 oprava čerpadla 1280,60 1536,72 10131
1401 27.10.15 SABKO s.r.o. 44493002 varic 40,80 48,96 10129
1402 27.10.15 Beličková, s.r.o. 45902836 farby 99,37 119,24 10093
1403 27.10.15 MOGUL SLOVAKIA s.r.o. 36222992 olej 772,20 926,64 10110
1404 27.10.15 BVH. Spol, s.r.o. 35674148 obuv 18,03 21,64 10072
1405 28.10.15 MARLUS Group, s.r.o. 31411304 servisný zásah 89,17 107,00 9961
1406 28.10.15 Verlag Dashofer 35730129 DPH - právne predpisy 0,00 0,00  
1407 28.10.15 IMET-AKE, s.r.o. 31341870 gufero 196,40 235,68 10105
1408 28.10.15 D.K.C., s.r.o. 31571727 nafta 854,00 1024,80 10108
1409 28.10.15 D.K.C., s.r.o. 31571727 nafta 1605,50 1926,60 10108
1410 29.10.15 JF, spol. s.r.o 36620009 školenie technikov 70,00 84,00  
1411 29.10.15 SEZ - KES 30778603 odborná literatúra 31,50 31,50 10122
1412 29.10.15 AutoKODUS s.r.o. 36530751 oprava auta 188,19 225,83 10136
1413 30.10.15 EPO, s.r.o. 652598 oprava + ND 689,60 827,52 10130
1414 30.10.15 ŽS Cargo Slovakia a.s. 35914921 vlečka 5653,20 6783,84 10085